CYVR

Vancouver International Airport

Vancouver, , Canada
METAR CYVR 221900Z 28011KT 30SM FEW025 22/16 A3020 RMK CF1 CF TR SLP227 DENSITY ALT 600FT
Observed Flight Rules
Jul-22 @ 19:00 UTC (48 minutes ago) Visual Flight Rules
Wind Visibility Clouds
280° at 11 knots 30 miles
  • Few at 2,500' AGL
Temperatures Readings
Current 22°C / 72°F
Dewpoint 16°C / 61°F
Humidity 69%
Altimeter 30.2" Hg
Pressure 1022.7 hPa
Elevation 2
METAR CYVR 221900Z 28011KT 30SM FEW025 22/16 A3020 RMK CF1 CF TR SLP227 DENSITY ALT 600FT
Observed Flight Rules
Jul-22 @ 19:00 UTC
(48 minutes ago)
VFR
Wind Visibility
280° at 11 knots 30 miles
Clouds
  • Few at 2,500' AGL
Temperature Dewpoint
22°C / 72°F 16°C / 61°F
Humidity Altimeter Pressure
69% 30.2" Hg 1022.7 hPa